Time;durP1;ratioP1;P1;durP2;ratioP2;P2;SDS_P1;SDS_P2;PMS_P1;PMS_P2;Temp;Humidity;BMP_temperature;BMP_pressure;BME280_temperature;BME280_humidity;BME280_pressure;Samples;Min_cycle;Max_cycle;Signal;HPM_P1;HPM_P2
2021/05/28 00:00:56;;;;;;;5.05;2.40;;;;;;;12.25;76.53;99694.50;4861244;29;20500;-60
2021/05/28 00:03:28;;;;;;;3.88;2.13;;;;;;;12.16;76.31;99683.47;4861131;29;20069;-60
2021/05/28 00:06:01;;;;;;;3.85;2.33;;;;;;;12.00;76.50;99695.50;4861213;29;20097;-60
2021/05/28 00:08:29;;;;;;;3.90;2.33;;;;;;;11.90;77.08;99704.13;4861216;29;20423;-60
2021/05/28 00:11:02;;;;;;;4.07;2.13;;;;;;;11.72;77.25;99702.50;4861172;29;20076;-61
2021/05/28 00:13:35;;;;;;;5.25;2.33;;;;;;;11.64;77.16;99704.19;4861185;29;20085;-60
2021/05/28 00:16:07;;;;;;;4.05;2.22;;;;;;;11.49;77.82;99704.28;4862581;29;20050;-61
2021/05/28 00:18:38;;;;;;;4.22;2.10;;;;;;;11.48;78.28;99704.28;4876216;29;20072;-60
2021/05/28 00:21:10;;;;;;;4.40;2.40;;;;;;;11.39;78.30;99687.28;4883166;29;20057;-61
2021/05/28 00:23:43;;;;;;;4.57;2.33;;;;;;;11.43;78.17;99705.16;4883023;29;20049;-60
2021/05/28 00:26:15;;;;;;;4.35;2.60;;;;;;;11.45;78.72;99698.31;4883124;29;20061;-60
2021/05/28 00:28:49;;;;;;;4.68;2.60;;;;;;;11.42;78.13;99707.72;4883392;29;20064;-60
2021/05/28 00:31:21;;;;;;;4.95;2.40;;;;;;;11.44;78.47;99708.56;4882995;29;20061;-60
2021/05/28 00:33:53;;;;;;;5.60;2.10;;;;;;;11.41;78.35;99709.41;4882976;29;20056;-60
2021/05/28 00:36:26;;;;;;;3.85;2.40;;;;;;;11.32;78.38;99711.16;4883261;29;20061;-60
2021/05/28 00:38:58;;;;;;;4.72;2.20;;;;;;;11.30;78.18;99708.59;4882910;29;20460;-60
2021/05/28 00:41:29;;;;;;;3.80;2.30;;;;;;;11.30;78.61;99708.59;4882783;29;20095;-60
2021/05/28 00:44:00;;;;;;;5.07;2.50;;;;;;;11.20;78.62;99706.09;4882942;29;20045;-60
2021/05/28 00:46:33;;;;;;;5.22;2.50;;;;;;;11.12;78.73;99706.09;4882585;29;20456;-60
2021/05/28 00:49:05;;;;;;;5.40;2.35;;;;;;;11.04;78.50;99706.94;4882725;29;20483;-60
2021/05/28 00:51:37;;;;;;;4.13;2.22;;;;;;;10.97;78.75;99713.78;4882367;29;20056;-60
2021/05/28 00:54:10;;;;;;;4.07;2.42;;;;;;;10.96;78.89;99718.91;4882979;29;20088;-60
2021/05/28 00:56:40;;;;;;;4.32;2.33;;;;;;;10.93;78.97;99716.34;4882620;29;20096;-60
2021/05/28 00:59:13;;;;;;;3.85;2.33;;;;;;;10.94;79.25;99723.16;4882782;29;20369;-60
2021/05/28 01:01:43;;;;;;;4.60;2.70;;;;;;;11.05;79.25;99727.41;4882519;29;20073;-61
2021/05/28 01:04:18;;;;;;;4.73;2.90;;;;;;;11.12;79.25;99723.13;4882198;29;20072;-60
2021/05/28 01:06:47;;;;;;;4.50;2.70;;;;;;;10.98;78.86;99732.53;4882434;29;20136;-60
2021/05/28 01:09:16;;;;;;;6.60;2.75;;;;;;;10.89;78.44;99735.09;4882414;29;20049;-61
2021/05/28 01:11:45;;;;;;;5.15;2.60;;;;;;;10.92;79.21;99730.81;4882081;29;20506;-61
2021/05/28 01:14:19;;;;;;;5.55;2.60;;;;;;;10.90;79.28;99737.63;4882787;29;20047;-60
2021/05/28 01:16:49;;;;;;;5.75;3.05;;;;;;;11.01;78.84;99738.50;4882274;29;20048;-60
2021/05/28 01:19:20;;;;;;;7.93;3.33;;;;;;;11.10;78.99;99735.06;4882169;29;20574;-60
2021/05/28 01:21:49;;;;;;;4.88;2.88;;;;;;;11.05;78.65;99726.53;4881927;29;20110;-60
2021/05/28 01:24:22;;;;;;;4.68;2.92;;;;;;;10.98;78.84;99725.72;4881922;29;20045;-60
2021/05/28 01:26:51;;;;;;;5.10;2.97;;;;;;;11.05;79.11;99727.41;4881255;29;20057;-60
2021/05/28 01:29:23;;;;;;;5.40;2.77;;;;;;;11.10;78.50;99729.94;4881775;29;20128;-60
2021/05/28 01:31:52;;;;;;;6.03;3.38;;;;;;;10.93;78.45;99726.56;4881707;29;20048;-61
2021/05/28 01:34:24;;;;;;;5.25;3.13;;;;;;;10.85;79.11;99718.06;4881724;29;20388;-61
2021/05/28 01:36:57;;;;;;;5.63;3.08;;;;;;;10.78;79.06;99722.31;4881946;29;20053;-60
2021/05/28 01:39:30;;;;;;;4.78;2.92;;;;;;;10.82;79.67;99728.28;4881897;29;20068;-60
2021/05/28 01:41:59;;;;;;;6.85;3.50;;;;;;;10.71;79.17;99716.38;4881770;29;20080;-61
2021/05/28 01:44:31;;;;;;;4.80;2.63;;;;;;;10.68;79.26;99721.47;4881385;29;20080;-61
2021/05/28 01:47:03;;;;;;;4.78;2.80;;;;;;;10.67;79.14;99724.91;4881726;29;20060;-60
2021/05/28 01:49:32;;;;;;;5.70;2.90;;;;;;;10.64;80.06;99729.16;4881792;29;20083;-60
2021/05/28 01:52:04;;;;;;;4.57;3.00;;;;;;;10.66;79.50;99730.84;4881618;29;20080;-60
2021/05/28 01:54:39;;;;;;;5.03;2.67;;;;;;;10.66;79.62;99728.28;4881525;29;20858;-60
2021/05/28 01:57:13;;;;;;;6.15;3.60;;;;;;;10.58;79.20;99729.16;4881564;29;20057;-60
2021/05/28 01:59:45;;;;;;;6.65;3.20;;;;;;;10.53;79.56;99736.78;4881546;29;20457;-60
2021/05/28 02:02:17;;;;;;;7.60;3.28;;;;;;;10.47;79.50;99731.69;4881458;29;20053;-60
2021/05/28 02:04:49;;;;;;;5.88;3.08;;;;;;;10.46;80.45;99736.81;4881169;29;20053;-60
2021/05/28 02:07:21;;;;;;;4.80;3.03;;;;;;;10.50;80.14;99730.84;4881405;29;20143;-60
2021/05/28 02:09:55;;;;;;;5.95;3.42;;;;;;;10.61;80.17;99737.66;4881123;29;20101;-61
2021/05/28 02:12:28;;;;;;;6.40;2.88;;;;;;;10.58;80.20;99734.28;4880851;29;20057;-60
2021/05/28 02:14:58;;;;;;;6.28;3.60;;;;;;;10.53;80.29;99736.78;4881153;29;20060;-61
2021/05/28 02:17:31;;;;;;;4.88;3.22;;;;;;;10.56;79.99;99741.91;4881193;29;20065;-60
2021/05/28 02:20:00;;;;;;;4.43;2.95;;;;;;;10.57;80.08;99728.31;4881104;29;20100;-61
2021/05/28 02:22:32;;;;;;;5.35;3.20;;;;;;;10.52;80.06;99739.34;4881357;29;20057;-61
2021/05/28 02:25:06;;;;;;;6.18;3.40;;;;;;;10.47;79.80;99747.00;4881042;29;20105;-62
2021/05/28 02:27:35;;;;;;;6.22;3.10;;;;;;;10.51;80.24;99746.16;4880991;29;20057;-63
2021/05/28 02:30:09;;;;;;;4.50;2.77;;;;;;;10.38;80.14;99752.13;4880932;29;20105;-63
2021/05/28 02:32:41;;;;;;;8.85;3.17;;;;;;;10.18;79.66;99752.91;4880926;29;20686;-62
2021/05/28 02:35:14;;;;;;;5.82;3.00;;;;;;;10.10;80.28;99745.25;4880813;29;20089;-60
2021/05/28 02:37:46;;;;;;;5.15;3.00;;;;;;;10.04;80.37;99746.06;4880829;29;20063;-60
2021/05/28 02:40:19;;;;;;;5.65;3.38;;;;;;;10.03;80.27;99744.34;4880827;29;20063;-60
2021/05/28 02:42:48;;;;;;;6.68;3.00;;;;;;;10.01;81.02;99743.50;4881059;29;20085;-60
2021/05/28 02:45:21;;;;;;;5.68;3.05;;;;;;;10.06;80.23;99748.59;4880359;29;20101;-60
2021/05/28 02:47:53;;;;;;;4.43;3.00;;;;;;;9.98;80.15;99743.47;4864058;29;20068;-60
2021/05/28 02:50:22;;;;;;;5.05;3.08;;;;;;;9.89;80.67;99740.06;4880372;29;20056;-60
2021/05/28 02:52:54;;;;;;;6.07;2.67;;;;;;;9.75;80.20;99744.25;4880607;29;20079;-60
2021/05/28 02:55:27;;;;;;;4.75;3.33;;;;;;;9.72;80.69;99751.88;4880830;29;20088;-60
2021/05/28 02:57:56;;;;;;;5.03;2.92;;;;;;;9.74;80.68;99747.69;4880491;29;20506;-60
2021/05/28 03:00:29;;;;;;;5.25;3.08;;;;;;;9.81;81.21;99741.75;4863875;29;20113;-60
2021/05/28 03:02:58;;;;;;;7.18;3.42;;;;;;;9.76;80.62;99743.44;4880766;29;20104;-60
2021/05/28 03:05:27;;;;;;;5.35;3.30;;;;;;;9.77;81.75;99745.13;4880096;29;20057;-60
2021/05/28 03:07:59;;;;;;;4.22;2.55;;;;;;;9.66;81.33;99746.78;4880350;29;20048;-59
2021/05/28 03:10:32;;;;;;;5.85;3.20;;;;;;;9.76;81.82;99743.44;4880359;29;20056;-60
2021/05/28 03:13:04;;;;;;;6.78;2.97;;;;;;;9.80;80.92;99750.22;4879842;29;20144;-60
2021/05/28 03:15:36;;;;;;;6.22;3.10;;;;;;;9.68;81.66;99755.28;4880210;29;20061;-60
2021/05/28 03:18:14;;;;;;;6.10;3.63;;;;;;;9.68;82.00;99757.84;4880244;29;20144;-60
2021/05/28 03:20:50;;;;;;;6.95;3.20;;;;;;;9.66;81.45;99752.75;4880223;29;20057;-60
2021/05/28 03:23:22;;;;;;;6.45;3.20;;;;;;;9.58;81.51;99749.28;4880106;29;20057;-60
2021/05/28 03:25:57;;;;;;;4.88;3.10;;;;;;;9.63;81.44;99746.75;4879847;29;20049;-60
2021/05/28 03:28:29;;;;;;;4.97;3.17;;;;;;;9.73;81.95;99753.59;4880127;29;20056;-60
2021/05/28 03:30:58;;;;;;;6.68;3.40;;;;;;;9.80;81.61;99747.69;4880075;29;20056;-60
2021/05/28 03:33:30;;;;;;;6.20;3.28;;;;;;;9.81;81.63;99751.94;4879855;29;20148;-60
2021/05/28 03:35:59;;;;;;;7.50;3.15;;;;;;;9.79;81.42;99753.66;4880012;29;20052;-60
2021/05/28 03:38:31;;;;;;;4.28;2.70;;;;;;;9.91;82.02;99753.69;4880174;29;20495;-60
2021/05/28 03:41:04;;;;;;;5.60;3.38;;;;;;;10.08;81.59;99755.41;4880337;29;20089;-60
2021/05/28 03:43:36;;;;;;;5.85;3.45;;;;;;;10.04;81.09;99758.81;4879991;29;20060;-60
2021/05/28 03:46:05;;;;;;;5.70;3.13;;;;;;;9.98;80.80;99770.69;4879611;29;20415;-60
2021/05/28 03:48:37;;;;;;;5.47;3.23;;;;;;;9.91;81.29;99768.97;4880279;29;20072;-60
2021/05/28 03:51:10;;;;;;;5.50;3.03;;;;;;;9.91;80.33;99774.91;4881270;29;20056;-59
2021/05/28 03:53:42;;;;;;;4.68;2.95;;;;;;;9.90;81.27;99777.47;4884198;29;20132;-59
2021/05/28 03:56:12;;;;;;;4.95;2.95;;;;;;;10.08;80.55;99772.41;4883665;29;20388;-59
2021/05/28 03:58:44;;;;;;;5.63;3.40;;;;;;;10.19;79.96;99775.88;4883377;29;20053;-59
2021/05/28 04:01:19;;;;;;;4.55;3.10;;;;;;;10.35;80.01;99767.41;4883857;29;20503;-59
2021/05/28 04:03:48;;;;;;;4.57;3.10;;;;;;;10.57;79.61;99768.28;4883556;29;20124;-60
2021/05/28 04:06:18;;;;;;;4.43;2.88;;;;;;;10.66;79.45;99753.81;4883473;29;20060;-61
2021/05/28 04:08:50;;;;;;;5.22;2.83;;;;;;;10.89;79.12;99758.06;4883729;29;20534;-60
2021/05/28 04:11:20;;;;;;;7.47;3.47;;;;;;;11.01;78.44;99766.59;4883170;29;20100;-60
2021/05/28 04:13:49;;;;;;;4.70;2.67;;;;;;;11.14;77.65;99762.28;4883348;29;20049;-61
2021/05/28 04:16:21;;;;;;;5.00;2.60;;;;;;;11.24;77.56;99769.06;4883582;29;20057;-60
2021/05/28 04:18:50;;;;;;;5.75;3.25;;;;;;;11.40;77.04;99770.75;4883327;29;20124;-60
2021/05/28 04:21:22;;;;;;;3.58;2.15;;;;;;;11.64;76.68;99773.22;4883152;29;20053;-60
2021/05/28 04:23:55;;;;;;;5.60;2.80;;;;;;;11.83;76.02;99767.22;4883134;29;20128;-60
2021/05/28 04:26:28;;;;;;;5.15;2.80;;;;;;;12.01;75.68;99769.69;4883159;29;20060;-61
2021/05/28 04:29:01;;;;;;;5.13;3.00;;;;;;;12.16;74.70;99770.47;4883083;29;20088;-61
2021/05/28 04:31:33;;;;;;;4.90;3.10;;;;;;;12.35;74.03;99766.94;4882983;29;20172;-60
2021/05/28 04:34:02;;;;;;;6.72;2.72;;;;;;;12.49;73.73;99770.25;4882960;29;20112;-62
2021/05/28 04:36:34;;;;;;;3.60;2.20;;;;;;;12.68;72.90;99767.53;4882937;29;20080;-62
2021/05/28 04:39:06;;;;;;;4.93;2.88;;;;;;;12.95;72.49;99771.59;4882848;29;20056;-62
2021/05/28 04:41:40;;;;;;;6.80;3.85;;;;;;;12.78;71.68;99768.31;4882781;29;20407;-60
2021/05/28 04:44:09;;;;;;;11.05;4.45;;;;;;;12.67;71.56;99767.53;4882652;29;20104;-60
2021/05/28 04:46:43;;;;;;;9.70;4.45;;;;;;;12.53;72.10;99782.16;4882755;29;20057;-60
2021/05/28 04:49:14;;;;;;;7.03;3.95;;;;;;;12.59;72.19;99777.88;4882668;29;20140;-60
2021/05/28 04:51:46;;;;;;;5.68;3.42;;;;;;;12.84;72.51;99778.50;4882718;29;20108;-60
2021/05/28 04:54:18;;;;;;;4.85;3.10;;;;;;;12.93;72.84;99781.00;4882680;29;20072;-60
2021/05/28 04:56:51;;;;;;;5.38;3.08;;;;;;;13.03;72.84;99785.16;4882577;29;20071;-59
2021/05/28 04:59:26;;;;;;;6.55;3.53;;;;;;;13.12;72.98;99782.56;4882535;29;20120;-60
2021/05/28 05:01:58;;;;;;;5.57;3.45;;;;;;;13.18;73.35;99787.63;4882303;29;20139;-60
2021/05/28 05:04:30;;;;;;;5.22;3.50;;;;;;;13.44;73.07;99780.50;4882383;29;20491;-60
2021/05/28 05:07:02;;;;;;;5.40;3.60;;;;;;;13.74;72.07;99778.47;4882453;29;20506;-60
2021/05/28 05:09:34;;;;;;;5.13;3.08;;;;;;;13.80;70.79;99786.94;4882377;29;20563;-60
2021/05/28 05:12:05;;;;;;;5.28;3.08;;;;;;;13.88;70.28;99786.84;4882168;29;20057;-60
2021/05/28 05:14:37;;;;;;;6.43;3.03;;;;;;;13.84;70.13;99783.50;4882296;29;20057;-60
2021/05/28 05:17:09;;;;;;;4.93;3.08;;;;;;;14.17;70.17;99791.59;4865690;29;20053;-60
2021/05/28 05:19:41;;;;;;;4.85;3.00;;;;;;;14.50;69.25;99781.75;4881885;29;20108;-60
2021/05/28 05:22:11;;;;;;;5.45;3.10;;;;;;;14.85;68.61;99788.06;4882150;29;20075;-61
2021/05/28 05:24:43;;;;;;;6.15;2.92;;;;;;;14.97;68.02;99773.25;4882124;29;20045;-60
2021/05/28 05:27:13;;;;;;;5.97;3.05;;;;;;;15.30;66.72;99772.69;4882086;29;20511;-60
2021/05/28 05:29:42;;;;;;;4.78;2.40;;;;;;;15.73;64.07;99777.88;4881954;29;20057;-63
2021/05/28 05:32:12;;;;;;;7.00;2.67;;;;;;;16.12;62.55;99785.66;4881717;29;20057;-62
2021/05/28 05:34:40;;;;;;;3.10;1.90;;;;;;;16.32;60.92;99789.50;4882004;29;20469;-62
2021/05/28 05:37:09;;;;;;;3.70;1.90;;;;;;;16.54;59.47;99789.88;4881571;29;20045;-63
2021/05/28 05:39:37;;;;;;;4.80;2.10;;;;;;;16.75;59.04;99779.06;4881822;29;20049;-63
2021/05/28 05:42:07;;;;;;;8.35;2.42;;;;;;;16.82;57.82;99772.88;4881521;29;20064;-62
2021/05/28 05:44:36;;;;;;;;;;;;;;;16.98;57.24;99783.66;4882103;29;20518;-62
2021/05/28 05:47:04;;;;;;;3.20;1.60;;;;;;;17.12;57.10;99785.00;4881542;29;20405;-62
2021/05/28 05:49:34;;;;;;;5.25;1.75;;;;;;;17.23;56.64;99793.31;4881333;29;20041;-63
2021/05/28 05:52:04;;;;;;;6.70;2.65;;;;;;;17.34;56.40;99791.31;4881340;29;20530;-63
2021/05/28 05:54:33;;;;;;;4.15;1.90;;;;;;;17.47;55.70;99791.00;4881351;29;20104;-63
2021/05/28 05:57:02;;;;;;;3.90;1.90;;;;;;;17.57;55.65;99792.44;4881266;29;20049;-62
2021/05/28 05:59:30;;;;;;;4.10;2.00;;;;;;;17.62;54.59;99796.59;4881518;29;20113;-63
2021/05/28 06:02:03;;;;;;;3.17;1.63;;;;;;;17.67;54.17;99805.06;4881225;29;20057;-64
2021/05/28 06:04:31;;;;;;;3.90;1.70;;;;;;;17.59;54.50;99806.19;4881101;29;20131;-62
2021/05/28 06:07:00;;;;;;;2.75;1.50;;;;;;;17.63;55.15;99810.38;4881123;29;20083;-63
2021/05/28 06:09:28;;;;;;;2.77;1.30;;;;;;;17.75;53.54;99804.88;4881085;29;20128;-63
2021/05/28 06:11:58;;;;;;;2.60;1.50;;;;;;;17.85;52.24;99803.72;4880800;29;20288;-62
2021/05/28 06:14:27;;;;;;;2.47;1.38;;;;;;;17.90;52.61;99800.09;4880669;29;20056;-63
2021/05/28 06:16:55;;;;;;;2.92;1.50;;;;;;;18.04;51.51;99805.72;4880988;29;20045;-63
2021/05/28 06:19:25;;;;;;;5.13;1.60;;;;;;;18.20;50.73;99811.28;4880868;29;20056;-63
2021/05/28 06:21:53;;;;;;;;;;;;;;;18.26;50.06;99805.94;4881559;29;20056;-63
2021/05/28 06:24:22;;;;;;;4.88;1.60;;;;;;;18.35;49.94;99816.03;4880881;29;19963;-63
2021/05/28 06:26:51;;;;;;;4.97;1.58;;;;;;;18.40;50.05;99824.47;4880704;29;20053;-63
2021/05/28 06:29:19;;;;;;;3.37;1.47;;;;;;;18.38;50.18;99821.06;4880918;29;20080;-63
2021/05/28 06:31:48;;;;;;;4.25;1.58;;;;;;;18.42;50.22;99816.66;4880593;29;20288;-63
2021/05/28 06:34:16;;;;;;;4.13;1.75;;;;;;;18.51;49.71;99817.28;4880582;29;20056;-62
2021/05/28 06:36:47;;;;;;;4.32;1.50;;;;;;;18.57;49.28;99819.66;4880475;29;20055;-63
2021/05/28 06:39:16;;;;;;;3.65;1.45;;;;;;;18.65;49.01;99828.03;4880644;29;20064;-62
2021/05/28 06:41:44;;;;;;;3.58;1.60;;;;;;;18.66;49.16;99827.16;4880767;29;20053;-63
2021/05/28 06:44:14;;;;;;;3.25;1.52;;;;;;;18.67;48.88;99838.31;4880794;29;20491;-62
2021/05/28 06:46:42;;;;;;;2.90;1.60;;;;;;;18.67;49.11;99834.00;4880276;29;20136;-60
2021/05/28 06:49:11;;;;;;;2.67;1.52;;;;;;;18.71;49.68;99830.41;4880384;29;20084;-63
2021/05/28 06:51:40;;;;;;;2.35;1.42;;;;;;;18.92;48.90;99828.03;4880342;29;20097;-63
2021/05/28 06:54:09;;;;;;;2.05;1.33;;;;;;;18.98;48.09;99823.50;4880247;29;20104;-62
2021/05/28 06:56:38;;;;;;;2.40;1.67;;;;;;;19.13;48.04;99829.94;4880565;29;20139;-62
2021/05/28 06:59:08;;;;;;;2.42;1.40;;;;;;;19.06;47.58;99823.25;4880221;29;20091;-63
2021/05/28 07:01:40;;;;;;;4.45;1.38;;;;;;;19.06;48.96;99820.69;4880276;29;20440;-63
2021/05/28 07:04:09;;;;;;;2.63;1.50;;;;;;;19.16;48.19;99833.28;4879972;29;20060;-62
2021/05/28 07:06:37;;;;;;;2.25;1.65;;;;;;;19.22;47.99;99832.19;4879764;29;20041;-62
2021/05/28 07:09:07;;;;;;;3.17;1.42;;;;;;;19.24;47.62;99820.09;4880017;29;20045;-63
2021/05/28 07:11:36;;;;;;;;;;;;;;;19.36;47.33;99825.69;4880157;29;20076;-63
2021/05/28 07:14:05;;;;;;;3.08;1.50;;;;;;;19.42;47.67;99832.41;4880065;29;19923;-63
2021/05/28 07:16:35;;;;;;;3.58;1.77;;;;;;;19.54;47.80;99829.41;4879890;29;20114;-63
2021/05/28 07:19:04;;;;;;;3.60;1.67;;;;;;;19.56;47.54;99825.00;4879999;29;20049;-63
2021/05/28 07:21:33;;;;;;;2.95;1.65;;;;;;;19.64;48.07;99830.78;4879998;29;20503;-62
2021/05/28 07:24:01;;;;;;;3.27;1.40;;;;;;;19.69;47.29;99828.88;4879833;29;20105;-63
2021/05/28 07:26:30;;;;;;;2.78;1.60;;;;;;;19.76;47.57;99827.75;4879768;29;20514;-60
2021/05/28 07:28:59;;;;;;;3.20;1.45;;;;;;;19.77;48.08;99820.84;4879784;29;20500;-63
2021/05/28 07:31:28;;;;;;;2.72;1.35;;;;;;;19.89;47.48;99821.22;4879875;29;20096;-63
2021/05/28 07:33:56;;;;;;;4.60;1.70;;;;;;;19.89;46.69;99829.00;4879739;29;20460;-63
2021/05/28 07:36:25;;;;;;;2.63;1.40;;;;;;;19.97;47.32;99826.97;4879712;29;20057;-64
2021/05/28 07:38:53;;;;;;;3.15;1.30;;;;;;;20.13;46.70;99823.84;4863010;29;20041;-63
2021/05/28 07:41:22;;;;;;;2.70;1.27;;;;;;;20.21;45.20;99824.38;4879599;29;20045;-63
2021/05/28 07:43:50;;;;;;;2.30;1.40;;;;;;;20.22;44.90;99824.38;4879565;29;20041;-63
2021/05/28 07:46:19;;;;;;;1.70;1.15;;;;;;;20.21;46.38;99837.34;4879562;29;20056;-63
2021/05/28 07:48:48;;;;;;;3.42;1.63;;;;;;;20.35;46.35;99835.94;4879662;29;20060;-63
2021/05/28 07:51:16;;;;;;;2.00;1.20;;;;;;;20.52;45.28;99837.91;4879775;29;20053;-63
2021/05/28 07:53:45;;;;;;;3.22;1.45;;;;;;;20.52;44.87;99832.72;4879449;29;20068;-62
2021/05/28 07:56:13;;;;;;;1.83;1.10;;;;;;;20.62;44.49;99834.03;4879357;29;20571;-63
2021/05/28 07:58:42;;;;;;;1.83;1.02;;;;;;;20.47;44.38;99835.47;4879396;29;20053;-61
2021/05/28 08:01:10;;;;;;;3.55;1.40;;;;;;;20.44;45.08;99835.59;4879452;29;20116;-63
2021/05/28 08:03:40;;;;;;;2.78;1.42;;;;;;;20.67;44.67;99834.72;4862783;29;20073;-63
2021/05/28 08:06:08;;;;;;;2.22;1.20;;;;;;;20.44;44.82;99834.78;4879339;29;20053;-63
2021/05/28 08:08:37;;;;;;;2.13;1.13;;;;;;;20.19;45.15;99829.63;4879225;29;20088;-61
2021/05/28 08:11:07;;;;;;;2.05;1.25;;;;;;;20.11;45.44;99833.41;4879530;29;20056;-63
2021/05/28 08:13:36;;;;;;;3.60;1.48;;;;;;;20.31;43.89;99830.94;4859279;29;20049;-61
2021/05/28 08:16:05;;;;;;;2.10;1.13;;;;;;;20.54;44.38;99820.50;4860784;29;20056;-63
2021/05/28 08:18:33;;;;;;;2.15;1.30;;;;;;;20.70;44.75;99821.63;4860868;29;20042;-64
2021/05/28 08:21:05;;;;;;;2.10;1.25;;;;;;;20.85;44.92;99821.00;4860830;29;20053;-63
2021/05/28 08:23:33;;;;;;;3.70;1.40;;;;;;;21.05;44.38;99818.47;4861114;29;20496;-63
2021/05/28 08:26:02;;;;;;;1.80;1.00;;;;;;;21.29;44.52;99816.59;4860655;29;20090;-63
2021/05/28 08:28:34;;;;;;;1.83;1.20;;;;;;;21.32;44.69;99806.94;4860753;29;20042;-63
2021/05/28 08:31:03;;;;;;;2.60;1.17;;;;;;;21.30;42.54;99808.78;4860993;29;20371;-62
2021/05/28 08:33:32;;;;;;;1.80;1.20;;;;;;;21.23;41.88;99809.09;4860935;29;20499;-63
2021/05/28 08:36:02;;;;;;;2.30;1.40;;;;;;;21.19;41.78;99795.38;4860794;29;20057;-63
2021/05/28 08:38:31;;;;;;;3.15;1.30;;;;;;;21.11;41.40;99813.06;4863990;29;20136;-63
2021/05/28 08:40:59;;;;;;;2.35;1.30;;;;;;;21.04;41.03;99806.38;4864058;29;20046;-63
2021/05/28 08:43:28;;;;;;;2.87;1.03;;;;;;;20.81;40.80;99811.66;4864072;29;20046;-63
2021/05/28 08:46:00;;;;;;;2.53;1.10;;;;;;;20.63;40.94;99804.63;4864085;29;20303;-63
2021/05/28 08:48:30;;;;;;;2.08;1.30;;;;;;;20.82;40.65;99805.56;4863093;29;20080;-63
2021/05/28 08:50:59;;;;;;;2.67;1.20;;;;;;;20.86;42.22;99811.47;4863966;29;20045;-63
2021/05/28 08:53:28;;;;;;;2.60;1.42;;;;;;;20.93;42.17;99812.91;4863829;29;20046;-62
2021/05/28 08:55:57;;;;;;;5.47;1.40;;;;;;;21.38;41.87;99815.41;4854386;29;20416;-63
2021/05/28 08:58:26;;;;;;;3.03;1.33;;;;;;;21.93;42.15;99809.50;4848314;29;20046;-62
2021/05/28 09:00:55;;;;;;;;;;;;;;;21.89;40.98;99813.13;4859062;29;20109;-63
2021/05/28 09:03:25;;;;;;;2.38;1.20;;;;;;;21.85;40.89;99809.00;4862199;29;20286;-63
2021/05/28 09:05:56;;;;;;;2.72;1.23;;;;;;;22.36;41.18;99817.00;4856011;29;20049;-63
2021/05/28 09:08:28;;;;;;;1.63;1.10;;;;;;;22.67;40.15;99798.25;4862025;29;20381;-62
2021/05/28 09:11:05;;;;;;;3.85;1.10;;;;;;;22.62;39.15;99806.28;4859658;29;20049;-62
2021/05/28 09:13:34;;;;;;;2.00;1.20;;;;;;;22.35;40.17;99804.09;4861621;29;20421;-62
2021/05/28 09:16:08;;;;;;;3.28;1.13;;;;;;;22.47;40.99;99809.56;4863260;29;20053;-62
2021/05/28 09:18:45;;;;;;;1.65;1.20;;;;;;;22.28;40.37;99806.13;4863262;29;20126;-62
2021/05/28 09:21:20;;;;;;;2.40;1.30;;;;;;;21.83;41.01;99806.44;4863668;29;20080;-61
2021/05/28 09:23:49;;;;;;;3.08;1.40;;;;;;;21.36;41.82;99808.50;4863372;29;20455;-61
2021/05/28 09:26:19;;;;;;;3.92;1.50;;;;;;;20.97;42.54;99804.09;4863129;29;20052;-62
2021/05/28 09:28:55;;;;;;;3.35;1.40;;;;;;;21.23;42.53;99809.09;4863147;29;20077;-62
2021/05/28 09:31:25;;;;;;;2.45;1.40;;;;;;;21.92;41.74;99813.00;4863469;29;20046;-62
2021/05/28 09:34:03;;;;;;;4.15;1.60;;;;;;;21.91;43.58;99806.09;4863213;29;20419;-62
2021/05/28 09:36:35;;;;;;;;;;;;;;;21.43;42.07;99813.44;4863520;29;20046;-62
2021/05/28 09:39:07;;;;;;;2.72;1.60;;;;;;;20.84;42.27;99806.34;4862907;29;19924;-62
2021/05/28 09:41:37;;;;;;;2.45;1.50;;;;;;;20.66;42.59;99804.47;4862947;29;20114;-62
2021/05/28 09:44:11;;;;;;;4.43;1.60;;;;;;;20.47;42.72;99813.88;4863052;29;20069;-62
2021/05/28 09:47:01;;;;;;;2.50;1.50;;;;;;;20.38;43.04;99819.44;4862856;29;20057;-62
2021/05/28 09:49:31;;;;;;;4.30;1.70;;;;;;;20.23;43.75;99825.22;4861920;29;20045;-62
2021/05/28 09:52:15;;;;;;;2.97;1.67;;;;;;;20.16;44.32;99808.16;4862855;29;20564;-61
2021/05/28 09:54:58;;;;;;;2.63;1.60;;;;;;;20.28;44.99;99818.09;4862697;29;20144;-62
2021/05/28 09:57:28;;;;;;;3.67;1.85;;;;;;;20.30;45.28;99824.09;4862683;29;20417;-62
2021/05/28 09:59:57;;;;;;;3.60;1.70;;;;;;;20.41;45.73;99816.72;4862590;29;20496;-62
2021/05/28 10:02:29;;;;;;;3.28;1.70;;;;;;;20.55;45.15;99823.06;4862615;29;20050;-62
2021/05/28 10:05:00;;;;;;;2.67;1.50;;;;;;;20.83;44.93;99812.44;4862358;29;20461;-62
2021/05/28 10:07:30;;;;;;;3.47;1.42;;;;;;;21.59;43.29;99814.47;4862224;29;20507;-61
2021/05/28 10:10:00;;;;;;;2.72;1.60;;;;;;;21.81;42.06;99812.63;4862518;29;20519;-62
2021/05/28 10:12:28;;;;;;;;;;;;;;;21.51;42.82;99811.34;4870558;29;20109;-62
2021/05/28 10:14:57;;;;;;;2.17;1.30;;;;;;;21.52;42.17;99807.84;4881013;29;20378;-62
2021/05/28 10:17:25;;;;;;;3.92;1.50;;;;;;;21.51;40.85;99806.16;4880813;29;20121;-62
2021/05/28 10:19:54;;;;;;;2.47;1.40;;;;;;;21.18;41.12;99808.44;4881091;29;20396;-62
2021/05/28 10:22:22;;;;;;;2.35;1.42;;;;;;;20.83;42.02;99807.25;4880891;29;20052;-62
2021/05/28 10:24:51;;;;;;;2.03;1.35;;;;;;;20.66;41.94;99800.13;4879912;29;20053;-62
2021/05/28 10:27:22;;;;;;;4.75;1.42;;;;;;;21.31;43.02;99804.41;4880651;29;20567;-62
2021/05/28 10:29:52;;;;;;;3.38;1.40;;;;;;;22.04;42.51;99804.66;4880640;29;20451;-62
2021/05/28 10:32:22;;;;;;;2.28;1.50;;;;;;;22.71;41.62;99793.72;4880707;29;20125;-62
2021/05/28 10:35:05;;;;;;;2.35;1.20;;;;;;;22.68;41.17;99795.56;4880501;29;20472;-62
2021/05/28 10:37:34;;;;;;;1.98;1.20;;;;;;;22.75;40.42;99790.06;4880838;29;20052;-62
2021/05/28 10:40:24;;;;;;;1.80;1.10;;;;;;;23.02;40.83;99783.50;4880611;29;20045;-62
2021/05/28 10:43:05;;;;;;;2.38;1.30;;;;;;;23.41;40.10;99789.31;4880458;29;20069;-62
2021/05/28 10:45:55;;;;;;;4.00;1.65;;;;;;;23.01;39.77;99781.81;4880455;29;20055;-62
2021/05/28 10:48:45;;;;;;;4.25;1.58;;;;;;;22.78;40.32;99787.28;4880696;29;20048;-62
2021/05/28 10:51:15;;;;;;;4.68;1.50;;;;;;;23.15;40.49;99788.03;4880336;29;20109;-62
2021/05/28 10:54:14;;;;;;;4.22;1.50;;;;;;;23.30;40.86;99783.78;4880556;29;20057;-62
2021/05/28 10:56:44;;;;;;;;;;;;;;;23.61;39.79;99786.50;4880781;29;20139;-62
2021/05/28 10:59:14;;;;;;;3.17;1.40;;;;;;;23.81;39.58;99783.72;4879129;29;19930;-62
2021/05/28 11:01:47;;;;;;;2.50;1.35;;;;;;;23.83;37.37;99783.63;4880767;29;20064;-62
2021/05/28 11:04:18;;;;;;;2.15;1.30;;;;;;;23.99;38.26;99780.09;4880186;29;20404;-62
2021/05/28 11:07:08;;;;;;;3.75;1.40;;;;;;;23.84;38.65;99786.16;4880004;29;20060;-63
2021/05/28 11:09:37;;;;;;;2.15;1.33;;;;;;;23.46;39.11;99791.69;4880082;29;20140;-62
2021/05/28 11:12:07;;;;;;;2.00;1.38;;;;;;;23.31;39.46;99791.53;4879823;29;20567;-62
2021/05/28 11:14:38;;;;;;;2.47;1.50;;;;;;;23.00;39.26;99780.13;4880059;29;20083;-62
2021/05/28 11:17:07;;;;;;;2.22;1.30;;;;;;;22.33;40.11;99777.31;4880036;29;20049;-62
2021/05/28 11:19:44;;;;;;;2.22;1.42;;;;;;;22.28;39.83;99784.47;4879822;29;20405;-62
2021/05/28 11:22:15;;;;;;;3.47;1.38;;;;;;;22.63;39.36;99776.72;4879954;29;20509;-63
2021/05/28 11:24:55;;;;;;;3.75;1.40;;;;;;;23.20;38.39;99782.59;4879900;29;20056;-63
2021/05/28 11:27:58;;;;;;;1.98;1.30;;;;;;;23.73;37.44;99779.84;4879846;29;20108;-62
2021/05/28 11:30:36;;;;;;;3.00;1.60;;;;;;;23.91;36.63;99782.31;4876372;29;20064;-62
2021/05/28 11:33:05;;;;;;;1.90;1.30;;;;;;;23.88;36.59;99766.81;4879952;29;20167;-62
2021/05/28 11:35:42;;;;;;;2.33;1.48;;;;;;;24.19;37.45;99776.47;4880020;29;20407;-63
2021/05/28 11:38:12;;;;;;;3.65;1.20;;;;;;;24.11;37.89;99772.59;4863336;29;20048;-62
2021/05/28 11:40:43;;;;;;;2.20;1.23;;;;;;;23.82;36.54;99761.94;4879722;29;20077;-62
2021/05/28 11:43:14;;;;;;;2.28;1.30;;;;;;;23.23;37.17;99771.97;4879608;29;20067;-62
2021/05/28 11:45:47;;;;;;;1.95;1.30;;;;;;;23.44;38.20;99776.16;4879874;29;20057;-62
2021/05/28 11:48:17;;;;;;;2.80;1.38;;;;;;;23.68;37.06;99774.84;4879405;29;20072;-62
2021/05/28 11:50:48;;;;;;;2.35;1.30;;;;;;;23.37;37.11;99769.53;4879958;29;20052;-62
2021/05/28 11:53:17;;;;;;;2.72;1.38;;;;;;;23.35;35.51;99766.19;4879641;29;20063;-62
2021/05/28 11:55:48;;;;;;;2.60;1.10;;;;;;;23.56;36.82;99765.09;4879502;29;20113;-62